Etusivu
METAR-TAF:

METAR-TAF

Lentoasemat :

Joensuun lentoasema

Joensuu, Suomi

Leveyspiiri: 62-40N, Pituuspiiri: 029-38E, korkeus merenpinnasta: 119 m

Tämänhetkinen sää

Tämä raportti tehtiin 17 minuuttia sitten, kello 19.50 UTC
Tuuli 3 kn lännestä/lounaasta
Lämpötila 10°C
Kosteus 50%
Ilmanpaine 1025 hPa
Näkyvyys 10 km tai enemmän
ei pilviä alle 1500 m:ssä eikä cumulonimbus-pilviä

METAR: EFJO 241950Z 24003KT CAVOK 10/M00 Q1025

Aika: 23:07 (20:07 UTC)

Sääennuste

Tämä raportti tehtiin 2 tuntia ja 45 minuuttia sitten, kello 17.22 UTC
Ennuste voimassa 24. päivästä klo 18 UTC - 24. päivään klo 23 UTC
Tuuli 3 kn lännestä/lounaasta
Näkyvyys 10 km tai enemmän
ei pilviä alle 1500 m:ssä eikä cumulonimbus-pilviä

TAF: EFJO 241722Z 2418/2423 25003KT CAVOK

Säähavainnot ja -ennusteet yli 4000 lentoasemalta (METAR- ja TAF-raportit).

Käytössä olevat sääasemat on merkitty karttaan keltaisilla ja punaisilla pisteillä.

Aseta hiiri pisteen päälle nähdäksesi sääaseman nimen.

Klikkaa sitten nähdäksesi säähavainnot ja -ennusteet.

Kartan vaihtaminen: klikkaa mustalla rastilla varustettuja vihreitä pisteitä, niin voit zoomata sisään; viivalla varustettua vihreää pistettä, niin voit zoomata ulos tai vihreitä nuolia, niin pääset viereisille kartoille.


METAR-TAF: